Aptos, California
Current Conditions -  °F | °C
As of 2:31 PM on Saturday 25 Oct 2014 (Local Time) from KWVI Reporting Station
Scattered Clouds Scattered Clouds  
Wind Chill: 21°   Ceiling: Unl
Heat Index: 21°   Visibility: 10mi
Dew Point: 16°   Wind: 9mph
Humidity: 71%   Direction: 220°SW
Pressure: 30.1"   Gusts: NA
Location:  36.98°N, 121.89°W
Report Text: KWVI 252131Z AUTO 22008KT 10SM FEW021 SCT025 21/16 A3010 RMK AO2 T02110156
Loading
Personal Weather Stations






























Interactive Weather Map
Tropical Storm Tracking
New forecast layout! Learn more

10-Day Weather Forecast

Advertisements
Track Severe Weather on mobile